Time;durP1;ratioP1;P1;durP2;ratioP2;P2;SDS_P1;SDS_P2;PMS_P1;PMS_P2;Temp;Humidity;BMP_temperature;BMP_pressure;BME280_temperature;BME280_humidity;BME280_pressure;Samples;Min_cycle;Max_cycle;Signal;HPM_P1;HPM_P2
2023/04/11 00:01:48;;;;;;;1.90;1.00;;;14.40;73.80;;;;;;5008286;28;20394;-77
2023/04/11 00:04:21;;;;;;;3.92;1.52;;;14.40;73.80;;;;;;5008105;28;20026;-77
2023/04/11 00:06:47;;;;;;;1.30;0.80;;;14.30;73.80;;;;;;5008781;28;20029;-77
2023/04/11 00:09:16;;;;;;;2.47;0.90;;;14.40;74.20;;;;;;5009431;28;20605;-76
2023/04/11 00:11:42;;;;;;;2.30;0.98;;;14.40;74.00;;;;;;5006543;28;20486;-77
2023/04/11 00:14:08;;;;;;;3.78;1.10;;;14.40;73.80;;;;;;5013332;28;20025;-77
2023/04/11 00:16:34;;;;;;;2.45;0.82;;;14.30;73.80;;;;;;5012065;28;20025;-77
2023/04/11 00:19:00;;;;;;;3.42;0.80;;;14.30;74.20;;;;;;5011452;28;20026;-76
2023/04/11 00:21:26;;;;;;;6.82;1.08;;;14.30;74.00;;;;;;5008456;28;20046;-77
2023/04/11 00:23:55;;;;;;;1.88;1.00;;;14.40;74.10;;;;;;5009072;28;20026;-77
2023/04/11 00:26:26;;;;;;;2.08;0.90;;;14.30;73.80;;;;;;5009828;28;20371;-77
2023/04/11 00:28:52;;;;;;;2.95;1.30;;;14.30;73.70;;;;;;5012336;28;20113;-77
2023/04/11 00:31:21;;;;;;;3.10;0.85;;;14.30;73.80;;;;;;5008579;28;20049;-76
2023/04/11 00:33:52;;;;;;;3.70;1.23;;;14.30;74.10;;;;;;5008693;28;20089;-76
2023/04/11 00:36:18;;;;;;;3.13;1.05;;;14.30;73.90;;;;;;5008127;28;20026;-75
2023/04/11 00:38:43;;;;;;;4.22;1.20;;;14.30;74.00;;;;;;5008190;28;20061;-77
2023/04/11 00:41:09;;;;;;;2.63;1.15;;;14.30;74.30;;;;;;5004799;28;20483;-76
2023/04/11 00:43:38;;;;;;;2.28;1.00;;;14.20;74.90;;;;;;5007208;28;20072;-76
2023/04/11 00:46:08;;;;;;;2.45;1.00;;;14.20;74.40;;;;;;5008975;28;20117;-75
2023/04/11 00:48:40;;;;;;;4.68;1.10;;;14.20;74.70;;;;;;5005892;28;20022;-78
2023/04/11 00:51:06;;;;;;;3.92;1.27;;;14.20;74.60;;;;;;5010191;28;20025;-78
2023/04/11 00:53:32;;;;;;;2.58;1.15;;;14.20;74.70;;;;;;5010636;28;20018;-78
2023/04/11 00:56:01;;;;;;;2.28;1.40;;;14.20;75.00;;;;;;5010718;28;20095;-78
2023/04/11 00:58:30;;;;;;;3.38;0.93;;;14.20;75.30;;;;;;5003942;28;20030;-76
2023/04/11 01:00:59;;;;;;;3.65;0.90;;;14.20;75.50;;;;;;5006318;28;20242;-76
2023/04/11 01:03:25;;;;;;;2.00;1.00;;;14.20;75.60;;;;;;5002118;28;20482;-76
2023/04/11 01:05:52;;;;;;;1.45;1.10;;;14.20;76.20;;;;;;5006384;28;20109;-76
2023/04/11 01:08:19;;;;;;;5.00;1.40;;;14.20;76.20;;;;;;5005440;28;20034;-77
2023/04/11 01:10:45;;;;;;;1.60;1.00;;;14.20;76.50;;;;;;5008905;28;20026;-76
2023/04/11 01:13:11;;;;;;;1.77;1.08;;;14.20;76.70;;;;;;5004407;28;20037;-77
2023/04/11 01:15:40;;;;;;;4.70;0.95;;;14.20;76.80;;;;;;5006778;28;20037;-75
2023/04/11 01:18:07;;;;;;;2.08;1.15;;;14.20;77.00;;;;;;5011428;28;20036;-77
2023/04/11 01:20:37;;;;;;;2.72;1.27;;;14.20;77.10;;;;;;5012025;28;20084;-75
2023/04/11 01:23:08;;;;;;;1.75;1.20;;;14.20;77.90;;;;;;5014731;28;20029;-75
2023/04/11 01:25:37;;;;;;;4.07;1.35;;;14.20;77.30;;;;;;5009050;28;20041;-76
2023/04/11 01:28:07;;;;;;;4.80;1.25;;;14.20;77.50;;;;;;5011963;28;20034;-76
2023/04/11 01:30:39;;;;;;;1.58;0.95;;;14.20;77.70;;;;;;5010983;28;20023;-76
2023/04/11 01:33:15;;;;;;;3.33;1.10;;;14.20;77.80;;;;;;5031147;28;20018;-75
2023/04/11 01:35:49;;;;;;;2.17;1.02;;;14.20;77.90;;;;;;5013766;28;20030;-76
2023/04/11 01:38:18;;;;;;;5.28;1.23;;;14.20;78.10;;;;;;5014866;28;20077;-77
2023/04/11 01:40:44;;;;;;;2.53;1.23;;;14.20;78.20;;;;;;5015312;28;20026;-75
2023/04/11 01:43:11;;;;;;;1.60;0.80;;;14.20;78.20;;;;;;5012300;28;20029;-75
2023/04/11 01:45:37;;;;;;;4.10;1.17;;;14.20;78.60;;;;;;5014051;28;20154;-75
2023/04/11 01:48:07;;;;;;;3.42;1.10;;;14.20;78.40;;;;;;5029963;28;20029;-76
2023/04/11 01:50:35;;;;;;;1.63;1.00;;;14.20;78.60;;;;;;5013603;28;20026;-76
2023/04/11 01:53:01;;;;;;;5.13;1.33;;;14.10;78.90;;;;;;5014328;28;20026;-76
2023/04/11 01:55:27;;;;;;;1.20;0.80;;;14.10;79.10;;;;;;5015278;28;20390;-77
2023/04/11 01:58:05;;;;;;;2.50;0.75;;;14.20;79.50;;;;;;5030420;28;20057;-76
2023/04/11 02:00:31;;;;;;;2.05;1.20;;;14.10;79.80;;;;;;5014207;28;20028;-77
2023/04/11 02:02:59;;;;;;;8.90;1.23;;;14.10;80.20;;;;;;5005352;28;20038;-74
2023/04/11 02:05:28;;;;;;;3.53;1.35;;;14.10;80.50;;;;;;5006041;28;20029;-76
2023/04/11 02:07:57;;;;;;;3.30;1.08;;;14.10;81.00;;;;;;5004195;28;20143;-75
2023/04/11 02:10:31;;;;;;;2.35;1.20;;;14.10;81.70;;;;;;5005740;28;20022;-76
2023/04/11 02:13:02;;;;;;;3.05;1.10;;;14.00;82.20;;;;;;5008065;28;20494;-76
2023/04/11 02:15:28;;;;;;;3.38;1.17;;;14.10;82.30;;;;;;5008422;28;20080;-77
2023/04/11 02:17:54;;;;;;;2.20;1.30;;;14.00;83.00;;;;;;5011163;28;20034;-73
2023/04/11 02:20:25;;;;;;;3.30;1.30;;;14.00;82.70;;;;;;5009409;28;20498;-76
2023/04/11 02:22:51;;;;;;;1.75;1.00;;;14.00;84.10;;;;;;5010334;28;20030;-76
2023/04/11 02:25:16;;;;;;;1.80;1.20;;;14.00;84.10;;;;;;5007173;28;20026;-77
2023/04/11 02:27:42;;;;;;;3.78;1.33;;;13.90;84.30;;;;;;5008263;28;20029;-76
2023/04/11 02:30:08;;;;;;;1.98;1.13;;;13.90;85.00;;;;;;5009958;28;20030;-74
2023/04/11 02:32:36;;;;;;;2.70;1.23;;;13.90;88.60;;;;;;5010412;28;20462;-77
2023/04/11 02:35:17;;;;;;;3.65;1.40;;;13.80;90.90;;;;;;5011436;28;20142;-77
2023/04/11 02:37:43;;;;;;;2.08;1.13;;;13.80;91.90;;;;;;5007135;28;20022;-77
2023/04/11 02:40:12;;;;;;;1.83;1.30;;;13.70;93.00;;;;;;5008624;28;20033;-75
2023/04/11 02:42:41;;;;;;;1.80;1.30;;;13.60;94.20;;;;;;5008400;28;20026;-77
2023/04/11 02:45:08;;;;;;;2.45;1.38;;;13.50;95.40;;;;;;5009470;28;20028;-75
2023/04/11 02:47:45;;;;;;;2.50;1.13;;;13.40;96.90;;;;;;5007453;28;20034;-76
2023/04/11 02:50:11;;;;;;;2.60;1.60;;;13.20;99.80;;;;;;5006840;28;20112;-76
2023/04/11 02:52:38;;;;;;;3.17;1.17;;;13.00;99.90;;;;;;5010663;28;20443;-73
2023/04/11 02:55:10;;;;;;;5.35;1.80;;;12.90;99.90;;;;;;5006855;28;20018;-76
2023/04/11 02:57:39;;;;;;;3.00;1.20;;;12.80;99.90;;;;;;5010593;28;20161;-76
2023/04/11 03:00:11;;;;;;;2.85;1.60;;;12.70;99.90;;;;;;5010370;28;20045;-76
2023/04/11 03:02:40;;;;;;;2.92;1.65;;;12.50;99.90;;;;;;5009114;28;20590;-75
2023/04/11 03:05:07;;;;;;;3.10;1.50;;;12.50;99.90;;;;;;5008778;28;20327;-75
2023/04/11 03:07:37;;;;;;;2.15;0.98;;;12.40;99.90;;;;;;5007105;28;20030;-75
2023/04/11 03:10:03;;;;;;;4.35;1.30;;;12.40;99.90;;;;;;5025458;28;20073;-76
2023/04/11 03:12:35;;;;;;;2.78;1.52;;;12.30;99.90;;;;;;5010769;28;20056;-75
2023/04/11 03:15:16;;;;;;;4.22;1.50;;;12.30;99.90;;;;;;5020572;28;20037;-76
2023/04/11 03:17:42;;;;;;;3.38;1.40;;;12.20;99.90;;;;;;5007200;28;20034;-75
2023/04/11 03:20:12;;;;;;;2.15;1.38;;;12.20;99.90;;;;;;5007255;28;20030;-75
2023/04/11 03:22:38;;;;;;;2.42;1.50;;;12.20;99.90;;;;;;5006478;28;20392;-76
2023/04/11 03:25:10;;;;;;;3.30;1.17;;;12.20;99.90;;;;;;5008059;28;20195;-75
2023/04/11 03:27:41;;;;;;;2.08;1.30;;;12.20;99.90;;;;;;5001979;28;20022;-71
2023/04/11 03:30:11;;;;;;;1.80;0.70;;;12.10;99.90;;;;;;5005439;28;20030;-75
2023/04/11 03:32:39;;;;;;;3.70;1.15;;;11.90;99.90;;;;;;5007319;28;20490;-73
2023/04/11 03:35:05;;;;;;;2.13;1.00;;;11.70;99.90;;;;;;5007960;28;20566;-76
2023/04/11 03:37:31;;;;;;;1.05;0.50;;;11.60;99.90;;;;;;5009162;28;20037;-76
2023/04/11 03:39:56;;;;;;;1.00;0.80;;;11.60;99.90;;;;;;5007927;28;20034;-74
2023/04/11 03:42:22;;;;;;;1.35;0.70;;;11.60;99.90;;;;;;5007896;28;20458;-77
2023/04/11 03:44:51;;;;;;;1.50;0.80;;;11.60;99.90;;;;;;5007154;28;20030;-77
2023/04/11 03:47:16;;;;;;;1.40;0.60;;;11.50;99.90;;;;;;5007458;28;20416;-77
2023/04/11 03:49:45;;;;;;;0.60;0.40;;;11.50;99.90;;;;;;5008596;28;20092;-77
2023/04/11 03:52:13;;;;;;;0.60;0.40;;;11.40;99.90;;;;;;5012384;28;20052;-77
2023/04/11 03:54:39;;;;;;;0.93;0.40;;;11.50;99.90;;;;;;5009298;28;20557;-75
2023/04/11 03:57:08;;;;;;;0.95;0.50;;;11.40;99.90;;;;;;5010233;28;20022;-76
2023/04/11 03:59:52;;;;;;;2.15;0.68;;;11.40;99.90;;;;;;5024604;28;20037;-76
2023/04/11 04:02:18;;;;;;;0.65;0.40;;;11.50;99.90;;;;;;5021400;28;20026;-76
2023/04/11 04:04:54;;;;;;;2.28;0.45;;;11.50;99.90;;;;;;5007345;28;20037;-77
2023/04/11 04:07:31;;;;;;;0.73;0.50;;;11.50;99.90;;;;;;5006823;28;20068;-76
2023/04/11 04:09:57;;;;;;;1.55;0.50;;;11.50;99.90;;;;;;5008617;28;20544;-76
2023/04/11 04:12:29;;;;;;;0.73;0.45;;;11.50;99.90;;;;;;5008051;28;20029;-75
2023/04/11 04:14:57;;;;;;;0.95;0.50;;;11.50;99.90;;;;;;5004475;28;20030;-76
2023/04/11 04:17:26;;;;;;;1.73;0.65;;;11.50;99.90;;;;;;5009742;28;20048;-77
2023/04/11 04:19:51;;;;;;;1.60;0.50;;;11.50;99.90;;;;;;5010012;28;20038;-77
2023/04/11 04:22:17;;;;;;;1.67;0.52;;;11.40;99.90;;;;;;5007721;28;20025;-76
2023/04/11 04:24:49;;;;;;;0.70;0.50;;;11.50;99.90;;;;;;5007820;28;20478;-75
2023/04/11 04:27:17;;;;;;;1.02;0.40;;;11.40;99.90;;;;;;5022754;23;20399;-74
2023/04/11 04:29:46;;;;;;;1.48;0.50;;;11.50;99.90;;;;;;4983459;28;20058;-74
2023/04/11 04:32:19;;;;;;;0.95;0.40;;;11.40;99.90;;;;;;4982690;28;20061;-74
2023/04/11 04:34:53;;;;;;;1.60;0.60;;;11.40;99.90;;;;;;4984626;28;20018;-74
2023/04/11 04:37:21;;;;;;;0.40;0.40;;;11.40;99.90;;;;;;4983771;28;20089;-74
2023/04/11 04:39:52;;;;;;;1.40;0.50;;;11.40;99.90;;;;;;4984525;28;20026;-74
2023/04/11 04:42:27;;;;;;;2.42;0.52;;;11.40;99.90;;;;;;4981917;28;20099;-74
2023/04/11 04:44:54;;;;;;;2.15;0.52;;;11.40;99.90;;;;;;4981226;28;20092;-75
2023/04/11 04:47:32;;;;;;;3.65;0.82;;;11.30;99.90;;;;;;4981710;28;20054;-74
2023/04/11 04:50:00;;;;;;;2.33;0.60;;;11.30;99.90;;;;;;4987807;28;20064;-74
2023/04/11 04:52:27;;;;;;;2.80;0.68;;;11.30;99.90;;;;;;4990576;28;20038;-76
2023/04/11 04:54:56;;;;;;;2.28;0.40;;;11.30;99.90;;;;;;4991308;28;20044;-75
2023/04/11 04:57:23;;;;;;;1.00;0.40;;;11.20;99.90;;;;;;4990931;28;20128;-76
2023/04/11 04:59:49;;;;;;;1.73;0.35;;;11.00;99.90;;;;;;4990877;28;20048;-75
2023/04/11 05:02:27;;;;;;;2.55;0.50;;;10.80;99.90;;;;;;4986991;28;20465;-75
2023/04/11 05:05:02;;;;;;;1.13;0.32;;;10.60;99.90;;;;;;4990878;28;20034;-75
2023/04/11 05:07:28;;;;;;;1.35;0.30;;;10.50;99.90;;;;;;5002117;28;20033;-75
2023/04/11 05:09:57;;;;;;;1.83;0.40;;;10.30;99.90;;;;;;4990767;28;20018;-76
2023/04/11 05:12:29;;;;;;;0.60;0.30;;;10.20;99.90;;;;;;4992563;28;20451;-76
2023/04/11 05:15:03;;;;;;;0.40;0.30;;;10.10;99.90;;;;;;4991461;28;20038;-76
2023/04/11 05:17:29;;;;;;;0.88;0.30;;;10.00;99.90;;;;;;4988639;28;20022;-75
2023/04/11 05:20:01;;;;;;;2.35;0.50;;;9.90;99.90;;;;;;4989784;28;20042;-75
2023/04/11 05:22:26;;;;;;;1.08;0.50;;;9.90;99.90;;;;;;4989521;28;20034;-75
2023/04/11 05:24:52;;;;;;;1.67;0.30;;;9.90;99.90;;;;;;4987700;28;20037;-75
2023/04/11 05:27:31;;;;;;;0.90;0.30;;;9.80;99.90;;;;;;4991943;28;20041;-75
2023/04/11 05:30:00;;;;;;;0.70;0.47;;;9.70;99.90;;;;;;4989665;28;20030;-74
2023/04/11 05:32:25;;;;;;;0.50;0.25;;;9.60;99.90;;;;;;4984820;28;20443;-75
2023/04/11 05:34:55;;;;;;;3.47;0.65;;;9.60;99.90;;;;;;4983768;28;20154;-74
2023/04/11 05:37:21;;;;;;;1.52;0.30;;;9.60;99.90;;;;;;4985226;28;20022;-74
2023/04/11 05:39:46;;;;;;;4.43;0.50;;;9.60;99.90;;;;;;4991188;28;20344;-74
2023/04/11 05:42:14;;;;;;;0.85;0.30;;;9.60;99.90;;;;;;5002815;28;20113;-74
2023/04/11 05:44:40;;;;;;;1.08;0.30;;;9.60;99.90;;;;;;4989322;28;20037;-74
2023/04/11 05:47:05;;;;;;;0.47;0.30;;;9.50;99.90;;;;;;5005457;28;20108;-74
2023/04/11 05:49:31;;;;;;;0.70;0.30;;;9.50;99.90;;;;;;4985847;28;20026;-74
2023/04/11 05:51:57;;;;;;;2.38;0.40;;;9.50;99.90;;;;;;4988395;28;20049;-74
2023/04/11 05:54:33;;;;;;;2.13;0.63;;;9.40;99.90;;;;;;4989345;28;20022;-75
2023/04/11 05:57:00;;;;;;;1.83;0.40;;;9.30;99.90;;;;;;4988315;28;20122;-74
2023/04/11 05:59:33;;;;;;;0.88;0.40;;;9.20;99.90;;;;;;4983567;28;20391;-75
2023/04/11 06:01:59;;;;;;;1.85;0.45;;;9.20;99.90;;;;;;5000871;28;20060;-75
2023/04/11 06:04:25;;;;;;;1.23;0.40;;;9.00;99.90;;;;;;4986701;28;20121;-74
2023/04/11 06:06:54;;;;;;;4.63;0.60;;;8.90;99.90;;;;;;4987954;28;20150;-75
2023/04/11 06:09:20;;;;;;;1.25;0.52;;;9.00;99.90;;;;;;4983913;28;20034;-75
2023/04/11 06:11:52;;;;;;;1.52;0.63;;;9.00;99.90;;;;;;4989025;28;20590;-74
2023/04/11 06:14:17;;;;;;;1.77;0.68;;;9.00;99.90;;;;;;5001098;28;20026;-75
2023/04/11 06:16:43;;;;;;;1.98;0.43;;;9.00;99.90;;;;;;4989451;28;20053;-74
2023/04/11 06:19:08;;;;;;;2.30;0.57;;;9.00;99.90;;;;;;4981913;28;20081;-75
2023/04/11 06:21:40;;;;;;;1.15;0.50;;;9.00;99.90;;;;;;4991010;28;20019;-74
2023/04/11 06:24:09;;;;;;;1.40;0.40;;;9.10;99.90;;;;;;4983369;28;20030;-75
2023/04/11 06:26:35;;;;;;;1.05;0.60;;;9.10;99.90;;;;;;4989155;28;20144;-74
2023/04/11 06:29:05;;;;;;;1.88;0.70;;;9.10;99.90;;;;;;4989825;28;20030;-75
2023/04/11 06:31:31;;;;;;;2.72;0.63;;;9.10;99.90;;;;;;4998586;28;20022;-75
2023/04/11 06:34:00;;;;;;;2.13;0.63;;;9.20;99.90;;;;;;4989746;28;20081;-75
2023/04/11 06:36:26;;;;;;;3.58;0.60;;;9.20;99.90;;;;;;5003878;28;20026;-75
2023/04/11 06:38:55;;;;;;;1.73;0.52;;;9.30;99.90;;;;;;4988552;28;20368;-75
2023/04/11 06:41:23;;;;;;;2.53;0.73;;;9.40;99.90;;;;;;4991938;28;20069;-75
2023/04/11 06:43:49;;;;;;;1.60;0.80;;;9.40;99.90;;;;;;4986494;28;20682;-74
2023/04/11 06:46:15;;;;;;;2.90;0.65;;;9.40;99.90;;;;;;4987398;28;20031;-75
2023/04/11 06:48:44;;;;;;;2.45;0.55;;;9.50;99.90;;;;;;4987671;28;20069;-74
2023/04/11 06:51:09;;;;;;;3.47;0.73;;;9.40;99.90;;;;;;4985337;28;20026;-75
2023/04/11 06:53:36;;;;;;;2.53;0.50;;;9.40;99.90;;;;;;4989283;28;20484;-74
2023/04/11 06:56:01;;;;;;;1.77;0.73;;;9.30;99.90;;;;;;4981258;28;20101;-75
2023/04/11 06:58:30;;;;;;;2.70;0.60;;;9.30;99.90;;;;;;4989851;28;20121;-74
2023/04/11 07:00:55;;;;;;;1.30;0.60;;;9.40;99.90;;;;;;5001160;28;20085;-74
2023/04/11 07:03:24;;;;;;;1.65;0.60;;;9.40;99.90;;;;;;4989044;28;20034;-73
2023/04/11 07:05:50;;;;;;;1.23;0.40;;;9.40;99.90;;;;;;4999410;28;20125;-75
2023/04/11 07:08:21;;;;;;;2.00;0.50;;;9.50;99.90;;;;;;4986226;28;20041;-75
2023/04/11 07:10:47;;;;;;;1.42;0.65;;;9.40;99.90;;;;;;4984577;28;20427;-75
2023/04/11 07:13:13;;;;;;;1.50;0.40;;;9.50;99.90;;;;;;4987017;28;20057;-75
2023/04/11 07:15:41;;;;;;;1.80;0.70;;;9.60;99.90;;;;;;4984078;28;20026;-75
2023/04/11 07:18:07;;;;;;;1.60;0.85;;;9.60;99.90;;;;;;4988519;28;20455;-76
2023/04/11 07:20:35;;;;;;;2.67;0.60;;;9.60;99.90;;;;;;4985828;28;20034;-76
2023/04/11 07:23:04;;;;;;;1.77;0.60;;;9.70;99.90;;;;;;4987830;28;20495;-76
2023/04/11 07:25:33;;;;;;;2.83;0.75;;;9.70;99.90;;;;;;4998546;28;20068;-76
2023/04/11 07:27:59;;;;;;;2.40;0.70;;;9.70;99.90;;;;;;4988952;28;20037;-75
2023/04/11 07:30:26;;;;;;;4.00;0.75;;;9.60;99.90;;;;;;4983707;28;20034;-75
2023/04/11 07:32:55;;;;;;;1.33;0.50;;;9.50;99.90;;;;;;4985496;28;20030;-75
2023/04/11 07:35:21;;;;;;;3.80;0.73;;;9.40;99.90;;;;;;4982641;28;20450;-75
2023/04/11 07:37:49;;;;;;;1.33;0.45;;;9.30;99.90;;;;;;4983639;28;20454;-75
2023/04/11 07:40:16;;;;;;;2.13;0.60;;;9.30;99.90;;;;;;4986209;28;20100;-75
2023/04/11 07:42:41;;;;;;;3.78;0.85;;;9.40;99.90;;;;;;4989317;28;20018;-75
2023/04/11 07:45:10;;;;;;;1.70;0.60;;;9.40;99.90;;;;;;4983841;28;20043;-76
2023/04/11 07:47:39;;;;;;;3.95;0.65;;;9.50;99.90;;;;;;4984044;28;20042;-76
2023/04/11 07:50:06;;;;;;;5.53;0.70;;;9.60;99.90;;;;;;5002501;28;20022;-75
2023/04/11 07:52:34;;;;;;;9.00;1.00;;;9.70;99.90;;;;;;4983233;28;20034;-74
2023/04/11 07:55:03;;;;;;;6.00;1.15;;;9.80;99.90;;;;;;4983913;28;20026;-74
2023/04/11 07:57:35;;;;;;;4.95;1.30;;;9.80;99.90;;;;;;4985159;28;20037;-75
2023/04/11 08:00:08;;;;;;;5.70;0.95;;;9.90;99.90;;;;;;4986490;28;20399;-75
2023/04/11 08:02:40;;;;;;;3.35;0.70;;;10.00;99.90;;;;;;4983588;28;20026;-75
2023/04/11 08:05:12;;;;;;;2.40;0.70;;;10.00;99.90;;;;;;4998287;28;20030;-75
2023/04/11 08:07:41;;;;;;;5.78;1.35;;;10.00;99.90;;;;;;4982109;28;20038;-75
2023/04/11 08:10:07;;;;;;;2.65;0.90;;;10.10;99.90;;;;;;4984433;28;20039;-75
2023/04/11 08:12:38;;;;;;;2.90;0.90;;;10.20;99.90;;;;;;4988272;28;20114;-74
2023/04/11 08:15:05;;;;;;;3.20;1.08;;;10.20;99.90;;;;;;4999116;28;20027;-74
2023/04/11 08:17:36;;;;;;;3.33;1.00;;;10.20;99.90;;;;;;4983686;28;20049;-75
2023/04/11 08:20:03;;;;;;;3.65;1.00;;;10.20;99.90;;;;;;4985049;28;20033;-75
2023/04/11 08:22:33;;;;;;;5.88;1.33;;;10.20;99.90;;;;;;4985798;28;20561;-75
2023/04/11 08:24:58;;;;;;;3.20;0.90;;;10.20;99.90;;;;;;4986050;28;20590;-75
2023/04/11 08:27:24;;;;;;;4.25;0.88;;;10.20;99.90;;;;;;4988938;28;20117;-74
2023/04/11 08:29:50;;;;;;;7.28;1.40;;;10.10;99.90;;;;;;4988619;28;20137;-75
2023/04/11 08:32:30;;;;;;;3.35;0.88;;;10.20;99.90;;;;;;4987331;28;20105;-75
2023/04/11 08:35:02;;;;;;;4.22;1.40;;;10.20;99.90;;;;;;5000641;28;20057;-74
2023/04/11 08:37:40;;;;;;;4.53;1.33;;;10.20;99.90;;;;;;4985710;28;20042;-74
2023/04/11 08:40:15;;;;;;;4.18;1.13;;;10.20;99.90;;;;;;4989073;28;20234;-74
2023/04/11 08:42:44;;;;;;;6.05;0.90;;;10.30;99.90;;;;;;4987774;28;20058;-74
2023/04/11 08:45:10;;;;;;;5.78;1.45;;;10.40;99.90;;;;;;4987900;28;20042;-74
2023/04/11 08:47:39;;;;;;;4.30;1.10;;;10.30;99.90;;;;;;4986442;28;20093;-74
2023/04/11 08:50:06;;;;;;;4.32;0.75;;;10.30;99.90;;;;;;4983786;28;20105;-74
2023/04/11 08:52:37;;;;;;;3.42;0.73;;;10.40;99.90;;;;;;4985741;28;20018;-74
2023/04/11 08:55:09;;;;;;;4.40;0.80;;;10.50;99.90;;;;;;4991115;28;20071;-74
2023/04/11 08:57:37;;;;;;;4.95;0.95;;;10.70;99.90;;;;;;4986154;28;20661;-75
2023/04/11 09:00:18;;;;;;;9.93;1.48;;;10.80;99.90;;;;;;4988803;28;20037;-75
2023/04/11 09:03:02;;;;;;;4.57;1.30;;;10.90;99.90;;;;;;4987879;28;20034;-74
2023/04/11 09:05:45;;;;;;;7.07;1.07;;;11.00;99.90;;;;;;4987931;28;20041;-75
2023/04/11 09:08:13;;;;;;;9.05;1.30;;;11.20;99.90;;;;;;4985240;28;20275;-74
2023/04/11 09:10:40;;;;;;;7.07;1.23;;;11.30;99.90;;;;;;4991052;28;20154;-73
2023/04/11 09:13:26;;;;;;;3.08;0.90;;;11.30;99.90;;;;;;4988332;28;20060;-74
2023/04/11 09:16:13;;;;;;;3.70;0.90;;;11.40;99.90;;;;;;4985854;28;20034;-74
2023/04/11 09:18:48;;;;;;;3.88;1.30;;;11.50;99.90;;;;;;5003374;28;20034;-73
2023/04/11 09:21:15;;;;;;;6.95;1.48;;;11.50;99.90;;;;;;4987149;28;20566;-73
2023/04/11 09:23:41;;;;;;;3.92;1.10;;;11.60;99.90;;;;;;4987390;28;20724;-74
2023/04/11 09:26:11;;;;;;;4.18;1.23;;;11.60;99.90;;;;;;4987799;28;20027;-73
2023/04/11 09:28:52;;;;;;;8.50;1.38;;;11.70;99.90;;;;;;4986893;28;20031;-74
2023/04/11 09:31:18;;;;;;;4.07;1.00;;;11.70;99.90;;;;;;4984864;28;20030;-73
2023/04/11 09:33:55;;;;;;;2.75;0.80;;;11.70;99.90;;;;;;4984157;28;20640;-73
2023/04/11 09:36:33;;;;;;;4.53;1.10;;;11.80;99.90;;;;;;5001745;28;20033;-74
2023/04/11 09:39:00;;;;;;;4.05;0.88;;;11.90;99.90;;;;;;4986692;28;20482;-74
2023/04/11 09:41:34;;;;;;;6.85;1.75;;;11.90;99.90;;;;;;4983924;28;20035;-73
2023/04/11 09:44:00;;;;;;;;;;;11.90;99.90;;;;;;4985739;28;20037;-72
2023/04/11 09:46:29;;;;;;;9.00;1.10;;;11.90;99.90;;;;;;4985257;28;19914;-73
2023/04/11 09:49:01;;;;;;;4.13;1.10;;;12.00;99.90;;;;;;4977549;28;20041;-74
2023/04/11 09:51:26;;;;;;;2.53;1.40;;;12.10;99.90;;;;;;4986057;28;20329;-74
2023/04/11 09:53:54;;;;;;;4.32;1.00;;;12.10;99.90;;;;;;4985589;28;20031;-74
2023/04/11 09:56:20;;;;;;;3.50;1.15;;;12.10;99.90;;;;;;4987070;28;20034;-74
2023/04/11 09:58:48;;;;;;;3.15;1.08;;;12.20;99.90;;;;;;4987986;28;20495;-74
2023/04/11 10:01:20;;;;;;;3.17;1.10;;;12.20;99.90;;;;;;4981123;28;20038;-74
2023/04/11 10:03:49;;;;;;;7.35;1.58;;;12.20;99.90;;;;;;4979974;28;20043;-74
2023/04/11 10:06:41;;;;;;;3.15;0.80;;;12.20;99.90;;;;;;4981063;28;20109;-73
2023/04/11 10:09:11;;;;;;;4.60;1.27;;;12.20;99.90;;;;;;4985912;28;20045;-74
2023/04/11 10:11:41;;;;;;;6.88;1.15;;;12.10;99.90;;;;;;4982567;28;20491;-74
2023/04/11 10:14:37;;;;;;;3.90;1.10;;;12.10;99.90;;;;;;4986037;28;20030;-74
2023/04/11 10:17:17;;;;;;;6.07;1.30;;;12.10;99.90;;;;;;4992190;28;20541;-75
2023/04/11 10:19:44;;;;;;;4.20;1.02;;;12.20;99.90;;;;;;4980306;28;20498;-74
2023/04/11 10:22:30;;;;;;;3.65;0.80;;;12.10;99.90;;;;;;4980357;28;20102;-74
2023/04/11 10:25:14;;;;;;;2.25;0.77;;;12.10;99.90;;;;;;4980572;28;20407;-74
2023/04/11 10:27:47;;;;;;;4.82;1.10;;;12.00;99.90;;;;;;4982732;28;20521;-74
2023/04/11 10:30:16;;;;;;;3.40;0.60;;;12.00;99.90;;;;;;4993536;28;20034;-73
2023/04/11 10:33:10;;;;;;;2.60;1.20;;;11.80;99.90;;;;;;4993136;28;20037;-73
2023/04/11 10:36:00;;;;;;;3.13;1.13;;;11.80;99.90;;;;;;4993214;28;20106;-73
2023/04/11 10:38:47;;;;;;;4.05;0.88;;;11.70;99.90;;;;;;4993185;28;20037;-73
2023/04/11 10:41:13;;;;;;;1.75;0.60;;;11.80;99.90;;;;;;4993286;28;20080;-73
2023/04/11 10:43:39;;;;;;;5.18;1.10;;;11.80;99.90;;;;;;4993074;28;20097;-72
2023/04/11 10:46:22;;;;;;;3.85;1.35;;;12.00;99.90;;;;;;4993041;28;20405;-73
2023/04/11 10:49:04;;;;;;;4.53;0.90;;;12.10;99.90;;;;;;5006679;28;20166;-73
2023/04/11 10:51:33;;;;;;;3.75;1.13;;;12.20;99.90;;;;;;4992961;28;20554;-72
2023/04/11 10:53:59;;;;;;;2.85;1.17;;;12.30;99.90;;;;;;5007944;28;20092;-73
2023/04/11 10:56:47;;;;;;;3.70;2.10;;;12.40;99.90;;;;;;4992908;28;20097;-73
2023/04/11 10:59:31;;;;;;;1.85;0.90;;;12.50;99.90;;;;;;4993033;28;20088;-74
2023/04/11 11:02:01;;;;;;;4.15;0.98;;;12.60;99.90;;;;;;4992733;28;20106;-73
2023/04/11 11:04:34;;;;;;;4.45;1.35;;;12.70;99.90;;;;;;4992813;28;20097;-73
2023/04/11 11:07:03;;;;;;;4.65;0.98;;;12.80;99.90;;;;;;4992659;28;20086;-73
2023/04/11 11:09:29;;;;;;;4.72;1.48;;;12.80;99.50;;;;;;4992629;28;20121;-73
2023/04/11 11:12:07;;;;;;;5.50;1.30;;;12.80;99.50;;;;;;4992759;28;20033;-74
2023/04/11 11:14:33;;;;;;;4.85;1.77;;;12.80;99.60;;;;;;4992820;28;20101;-73
2023/04/11 11:16:59;;;;;;;4.50;0.82;;;12.80;99.20;;;;;;4992238;28;20555;-74
2023/04/11 11:19:25;;;;;;;2.33;0.82;;;12.90;98.60;;;;;;4992287;28;20040;-73
2023/04/11 11:21:51;;;;;;;4.05;1.13;;;13.00;97.70;;;;;;4992464;28;20023;-73
2023/04/11 11:24:24;;;;;;;4.85;1.50;;;13.10;98.10;;;;;;4992575;28;20026;-73
2023/04/11 11:26:51;;;;;;;3.57;1.30;;;13.20;97.60;;;;;;4991990;28;20022;-74
2023/04/11 11:29:37;;;;;;;3.70;1.17;;;13.30;97.20;;;;;;4974864;28;20482;-73
2023/04/11 11:32:03;;;;;;;2.95;1.15;;;13.30;97.00;;;;;;4988253;28;20399;-75
2023/04/11 11:34:41;;;;;;;6.22;2.08;;;13.40;95.70;;;;;;4975817;28;20030;-73
2023/04/11 11:37:06;;;;;;;2.42;0.93;;;13.50;94.90;;;;;;4991585;28;20065;-74
2023/04/11 11:39:33;;;;;;;3.58;1.75;;;13.50;92.10;;;;;;4991753;28;20058;-74
2023/04/11 11:42:02;;;;;;;3.78;0.75;;;13.40;91.40;;;;;;4990607;28;20057;-74
2023/04/11 11:44:29;;;;;;;5.25;0.98;;;13.40;91.60;;;;;;4991863;28;20097;-73
2023/04/11 11:47:11;;;;;;;2.55;0.90;;;13.40;90.90;;;;;;4990139;28;20434;-73
2023/04/11 11:49:55;;;;;;;2.50;0.70;;;13.30;87.60;;;;;;4991996;28;20030;-74
2023/04/11 11:52:33;;;;;;;;;;;13.30;86.70;;;;;;4992413;28;20168;-74
2023/04/11 11:55:16;;;;;;;5.43;1.70;;;13.30;87.80;;;;;;4991785;28;20277;-74
2023/04/11 11:57:46;;;;;;;2.67;0.93;;;13.30;87.60;;;;;;4991861;28;20027;-74
2023/04/11 12:00:23;;;;;;;3.55;0.80;;;13.30;87.50;;;;;;4991171;28;20030;-74
2023/04/11 12:02:54;;;;;;;2.55;1.00;;;13.40;87.50;;;;;;4991673;28;20446;-73
2023/04/11 12:05:23;;;;;;;2.85;1.05;;;13.30;86.00;;;;;;4991501;28;20115;-72
2023/04/11 12:07:59;;;;;;;3.35;1.00;;;13.20;85.10;;;;;;4991500;28;20467;-74
2023/04/11 12:10:38;;;;;;;5.97;1.30;;;13.30;85.80;;;;;;4991672;28;20050;-73
2023/04/11 12:13:20;;;;;;;2.45;0.68;;;13.20;84.10;;;;;;4990595;28;20104;-74
2023/04/11 12:15:51;;;;;;;2.40;0.90;;;13.30;84.10;;;;;;4990185;28;20038;-74
2023/04/11 12:18:21;;;;;;;2.13;0.75;;;13.30;84.00;;;;;;4989993;28;20029;-73
2023/04/11 12:20:49;;;;;;;2.10;0.77;;;13.40;83.10;;;;;;4991425;28;20029;-73
2023/04/11 12:23:16;;;;;;;5.03;0.85;;;13.40;83.90;;;;;;4990221;28;20027;-73
2023/04/11 12:25:53;;;;;;;2.50;1.15;;;13.40;83.80;;;;;;4991956;28;20023;-73
2023/04/11 12:28:21;;;;;;;4.00;0.98;;;13.40;83.50;;;;;;4991009;28;20037;-73
2023/04/11 12:30:47;;;;;;;5.07;0.95;;;13.40;83.80;;;;;;4991253;28;20022;-73
2023/04/11 12:33:19;;;;;;;3.10;0.70;;;13.40;84.60;;;;;;4991369;28;20039;-73
2023/04/11 12:35:44;;;;;;;2.85;0.80;;;13.40;85.10;;;;;;4991315;28;20022;-73
2023/04/11 12:38:13;;;;;;;3.70;1.10;;;13.60;85.10;;;;;;4991124;28;20101;-73
2023/04/11 12:40:41;;;;;;;3.35;0.75;;;13.60;85.30;;;;;;4991301;28;20061;-74
2023/04/11 12:43:10;;;;;;;2.42;1.00;;;13.70;85.70;;;;;;4991147;28;20426;-73
2023/04/11 12:45:42;;;;;;;6.13;1.23;;;13.70;85.10;;;;;;4991324;28;20031;-73
2023/04/11 12:48:10;;;;;;;2.97;1.30;;;13.80;86.40;;;;;;4991028;28;20428;-72
2023/04/11 12:50:48;;;;;;;3.95;1.45;;;13.80;86.70;;;;;;4991103;28;20499;-73
2023/04/11 12:53:19;;;;;;;5.88;1.50;;;13.90;86.30;;;;;;4989675;28;20045;-74
2023/04/11 12:55:45;;;;;;;3.38;1.48;;;13.90;86.50;;;;;;4991078;28;20030;-73
2023/04/11 12:58:11;;;;;;;6.78;1.90;;;13.80;86.10;;;;;;4990719;28;20099;-74
2023/04/11 13:00:39;;;;;;;4.28;1.75;;;13.80;85.70;;;;;;4991115;28;20051;-74
2023/04/11 13:03:05;;;;;;;4.45;1.40;;;13.80;86.70;;;;;;4990031;28;20406;-74
2023/04/11 13:05:37;;;;;;;4.68;1.00;;;13.80;86.20;;;;;;4989633;28;20027;-73